Pagrindinis puslapis
METAR-TAF:

METAR-TAF

Oro uostai :

Nevis, Antigva ir Barbuda

platuma: 17-12N, ilguma: 062-35W, Aukštis: 17 m

Dabartinis oras

Ataskaita buvo paskelbta 12 valandos ir 40 minutes, ne 23:00 UTC
Ramus vėjas
Temperatūra
Slėgis 1014 hPa
Matomumas 10 km arba daugiau
Išsisklaidę debesys ne aukštis 1800 ft

METAR: TKPN 142300Z 00000KT 9999 SCT018 ///// Q1014

Laikas: 07:40 (11:40 UTC)

Prognozė

Ataskaita buvo paskelbta 40 minutes, ne 11:00 UTC
Prognozė galioja nuo 15 metu 12 UTC su 16 metu 12 UTC
Vėjas 7 kt iš Rytų/Pietryčių
Matomumas 10 km arba daugiau
Išsisklaidę debesys ne aukštis 2000 ft
Tikimybė 40% :
Laikinai
nuo 15 metu 14 UTC su 15 metu 22 UTC
Vėjas 2 kt nuo kintamojo kryptimis
Mažai debesys ne aukštis 1200 ft, Liūtiniai kamuoliniai debesys.
Su prošvaistėmis ne aukštis 1400 ft
lietus

TAF: TKPN 151100Z 1512/1612 12007KT 9999 SCT020 PROB40 TEMPO 1514/1522 VRB02KT SHRA FEW012CB BKN014

Orai ataskaitas ir orų prognozės (METAR, TAF).

turimą stotys yra geltonos ir raudonos taškus žemėlapyje.

Perkelti pele per norėdami pamatyti stoties vardą.

Tada spustelėkite, norėdami matyti oro stebėjimo ir prognozės.

Norėdami pakeisti žemėlapį: spustelėkite ant žalios mygtukų su juodo kryžiaus žemyn,; žalią mygtuką su brūkšneliu, jei norite nutolinti; arba žalių rodyklių gretimoms žemėlapius.


METAR-TAF: